sensor_id;sensor_type;location;lat;lon;timestamp;temperature;humidity
32877;DHT22;19226;51.600;8.034;2023-12-22T00:00:04;6.50;99.90
32877;DHT22;19226;51.600;8.034;2023-12-22T00:02:49;6.50;99.90
32877;DHT22;19226;51.600;8.034;2023-12-22T00:05:34;6.50;99.90
32877;DHT22;19226;51.600;8.034;2023-12-22T00:08:19;6.50;99.90
32877;DHT22;19226;51.600;8.034;2023-12-22T00:11:03;6.50;99.90
32877;DHT22;19226;51.600;8.034;2023-12-22T00:13:48;6.50;99.90
32877;DHT22;19226;51.600;8.034;2023-12-22T00:16:33;6.50;99.90
32877;DHT22;19226;51.600;8.034;2023-12-22T00:19:18;6.40;99.90
32877;DHT22;19226;51.600;8.034;2023-12-22T00:22:03;6.50;99.90
32877;DHT22;19226;51.600;8.034;2023-12-22T00:24:48;6.40;99.90
32877;DHT22;19226;51.600;8.034;2023-12-22T00:27:32;6.40;99.90
32877;DHT22;19226;51.600;8.034;2023-12-22T00:30:17;6.40;99.90
32877;DHT22;19226;51.600;8.034;2023-12-22T00:33:02;6.40;99.90
32877;DHT22;19226;51.600;8.034;2023-12-22T00:35:46;6.40;99.90
32877;DHT22;19226;51.600;8.034;2023-12-22T00:38:31;6.30;99.90
32877;DHT22;19226;51.600;8.034;2023-12-22T00:41:16;6.40;99.90
32877;DHT22;19226;51.600;8.034;2023-12-22T00:44:01;6.30;99.90
32877;DHT22;19226;51.600;8.034;2023-12-22T00:46:46;6.30;99.90
32877;DHT22;19226;51.600;8.034;2023-12-22T00:49:30;6.30;99.90
32877;DHT22;19226;51.600;8.034;2023-12-22T00:52:15;6.30;99.90
32877;DHT22;19226;51.600;8.034;2023-12-22T00:55:00;6.30;99.90
32877;DHT22;19226;51.600;8.034;2023-12-22T00:57:44;6.30;99.90
32877;DHT22;19226;51.600;8.034;2023-12-22T01:00:29;6.30;99.90
32877;DHT22;19226;51.600;8.034;2023-12-22T01:03:13;6.30;99.90
32877;DHT22;19226;51.600;8.034;2023-12-22T01:05:58;6.20;99.90
32877;DHT22;19226;51.600;8.034;2023-12-22T01:08:42;6.30;99.90
32877;DHT22;19226;51.600;8.034;2023-12-22T01:11:28;6.30;99.90
32877;DHT22;19226;51.600;8.034;2023-12-22T01:14:12;6.20;99.90
32877;DHT22;19226;51.600;8.034;2023-12-22T01:17:00;6.20;99.90
32877;DHT22;19226;51.600;8.034;2023-12-22T01:19:44;6.20;99.90
32877;DHT22;19226;51.600;8.034;2023-12-22T01:22:30;6.20;99.90
32877;DHT22;19226;51.600;8.034;2023-12-22T01:25:16;6.20;99.90
32877;DHT22;19226;51.600;8.034;2023-12-22T01:28:00;6.20;99.90
32877;DHT22;19226;51.600;8.034;2023-12-22T01:30:45;6.20;99.90
32877;DHT22;19226;51.600;8.034;2023-12-22T01:33:30;6.10;99.90
32877;DHT22;19226;51.600;8.034;2023-12-22T01:36:15;6.10;99.90
32877;DHT22;19226;51.600;8.034;2023-12-22T01:38:59;6.10;99.90
32877;DHT22;19226;51.600;8.034;2023-12-22T01:41:43;6.10;99.90
32877;DHT22;19226;51.600;8.034;2023-12-22T01:44:28;6.10;99.90
32877;DHT22;19226;51.600;8.034;2023-12-22T01:47:13;6.10;99.90
32877;DHT22;19226;51.600;8.034;2023-12-22T01:49:58;6.10;99.90
32877;DHT22;19226;51.600;8.034;2023-12-22T01:52:47;6.10;99.90
32877;DHT22;19226;51.600;8.034;2023-12-22T01:55:32;6.10;99.90
32877;DHT22;19226;51.600;8.034;2023-12-22T01:58:18;6.20;99.90
32877;DHT22;19226;51.600;8.034;2023-12-22T02:01:04;6.10;99.90
32877;DHT22;19226;51.600;8.034;2023-12-22T02:03:52;6.10;99.90
32877;DHT22;19226;51.600;8.034;2023-12-22T02:06:38;6.20;99.90
32877;DHT22;19226;51.600;8.034;2023-12-22T02:09:23;6.10;99.90
32877;DHT22;19226;51.600;8.034;2023-12-22T02:12:07;6.10;99.90
32877;DHT22;19226;51.600;8.034;2023-12-22T02:14:52;6.10;99.90
32877;DHT22;19226;51.600;8.034;2023-12-22T02:20:35;6.10;99.90
32877;DHT22;19226;51.600;8.034;2023-12-22T02:23:19;6.10;99.90
32877;DHT22;19226;51.600;8.034;2023-12-22T02:29:05;6.20;99.90
32877;DHT22;19226;51.600;8.034;2023-12-22T02:31:53;6.20;99.90
32877;DHT22;19226;51.600;8.034;2023-12-22T02:34:41;6.10;99.90
32877;DHT22;19226;51.600;8.034;2023-12-22T02:37:27;6.20;99.90
32877;DHT22;19226;51.600;8.034;2023-12-22T02:40:14;6.20;99.90
32877;DHT22;19226;51.600;8.034;2023-12-22T02:42:59;6.20;99.90
32877;DHT22;19226;51.600;8.034;2023-12-22T02:45:49;6.20;99.90
32877;DHT22;19226;51.600;8.034;2023-12-22T02:48:34;6.20;99.90
32877;DHT22;19226;51.600;8.034;2023-12-22T02:51:19;6.20;99.90
32877;DHT22;19226;51.600;8.034;2023-12-22T02:54:04;6.20;99.90
32877;DHT22;19226;51.600;8.034;2023-12-22T02:56:49;6.20;99.90
32877;DHT22;19226;51.600;8.034;2023-12-22T02:59:33;6.20;99.90
32877;DHT22;19226;51.600;8.034;2023-12-22T03:02:18;6.20;99.90
32877;DHT22;19226;51.600;8.034;2023-12-22T03:05:03;6.20;99.90
32877;DHT22;19226;51.600;8.034;2023-12-22T03:07:48;6.20;99.90
32877;DHT22;19226;51.600;8.034;2023-12-22T03:10:32;6.20;99.90
32877;DHT22;19226;51.600;8.034;2023-12-22T03:13:17;6.20;99.90
32877;DHT22;19226;51.600;8.034;2023-12-22T03:16:01;6.20;99.90
32877;DHT22;19226;51.600;8.034;2023-12-22T03:18:46;6.20;99.90
32877;DHT22;19226;51.600;8.034;2023-12-22T03:21:31;6.20;99.90
32877;DHT22;19226;51.600;8.034;2023-12-22T03:24:15;6.20;99.90
32877;DHT22;19226;51.600;8.034;2023-12-22T03:27:00;6.20;99.90
32877;DHT22;19226;51.600;8.034;2023-12-22T03:29:44;6.20;99.90
32877;DHT22;19226;51.600;8.034;2023-12-22T03:32:29;6.20;99.90
32877;DHT22;19226;51.600;8.034;2023-12-22T03:35:14;6.20;99.90
32877;DHT22;19226;51.600;8.034;2023-12-22T03:37:59;6.10;99.90
32877;DHT22;19226;51.600;8.034;2023-12-22T03:40:44;6.10;99.90
32877;DHT22;19226;51.600;8.034;2023-12-22T03:43:28;6.00;99.90
32877;DHT22;19226;51.600;8.034;2023-12-22T03:46:14;6.00;99.90
32877;DHT22;19226;51.600;8.034;2023-12-22T03:49:00;5.90;99.90
32877;DHT22;19226;51.600;8.034;2023-12-22T03:51:45;5.90;99.90
32877;DHT22;19226;51.600;8.034;2023-12-22T03:54:29;5.80;99.90
32877;DHT22;19226;51.600;8.034;2023-12-22T03:57:14;5.80;99.90
32877;DHT22;19226;51.600;8.034;2023-12-22T03:59:59;5.70;99.90
32877;DHT22;19226;51.600;8.034;2023-12-22T04:02:43;5.60;99.90
32877;DHT22;19226;51.600;8.034;2023-12-22T04:05:28;5.60;99.90
32877;DHT22;19226;51.600;8.034;2023-12-22T04:08:13;5.50;99.90
32877;DHT22;19226;51.600;8.034;2023-12-22T04:10:57;5.50;99.90
32877;DHT22;19226;51.600;8.034;2023-12-22T04:13:42;5.60;99.90
32877;DHT22;19226;51.600;8.034;2023-12-22T04:16:26;5.50;99.90
32877;DHT22;19226;51.600;8.034;2023-12-22T04:19:11;5.60;99.90
32877;DHT22;19226;51.600;8.034;2023-12-22T04:21:56;5.60;99.90
32877;DHT22;19226;51.600;8.034;2023-12-22T04:24:40;5.60;99.90
32877;DHT22;19226;51.600;8.034;2023-12-22T04:27:25;5.60;99.90
32877;DHT22;19226;51.600;8.034;2023-12-22T04:30:09;5.60;99.90
32877;DHT22;19226;51.600;8.034;2023-12-22T04:32:54;5.60;99.90
32877;DHT22;19226;51.600;8.034;2023-12-22T04:35:39;5.70;99.90
32877;DHT22;19226;51.600;8.034;2023-12-22T04:38:23;5.70;99.90
32877;DHT22;19226;51.600;8.034;2023-12-22T04:41:07;5.70;99.90
32877;DHT22;19226;51.600;8.034;2023-12-22T04:43:52;5.70;99.90
32877;DHT22;19226;51.600;8.034;2023-12-22T04:46:39;5.80;99.90
32877;DHT22;19226;51.600;8.034;2023-12-22T04:49:24;5.80;99.90
32877;DHT22;19226;51.600;8.034;2023-12-22T04:52:09;5.80;99.90
32877;DHT22;19226;51.600;8.034;2023-12-22T04:54:54;5.80;99.90
32877;DHT22;19226;51.600;8.034;2023-12-22T04:57:39;5.70;99.90
32877;DHT22;19226;51.600;8.034;2023-12-22T05:00:23;5.70;99.90
32877;DHT22;19226;51.600;8.034;2023-12-22T05:03:08;5.80;99.90
32877;DHT22;19226;51.600;8.034;2023-12-22T05:05:52;5.80;99.90
32877;DHT22;19226;51.600;8.034;2023-12-22T05:08:37;5.80;99.90
32877;DHT22;19226;51.600;8.034;2023-12-22T05:11:23;5.80;99.90
32877;DHT22;19226;51.600;8.034;2023-12-22T05:14:07;5.80;99.90
32877;DHT22;19226;51.600;8.034;2023-12-22T05:16:52;5.80;99.90
32877;DHT22;19226;51.600;8.034;2023-12-22T05:19:39;5.70;99.90
32877;DHT22;19226;51.600;8.034;2023-12-22T05:22:25;5.80;99.90
32877;DHT22;19226;51.600;8.034;2023-12-22T05:25:12;5.70;99.90
32877;DHT22;19226;51.600;8.034;2023-12-22T05:27:57;5.70;99.90
32877;DHT22;19226;51.600;8.034;2023-12-22T05:30:42;5.70;99.90
32877;DHT22;19226;51.600;8.034;2023-12-22T05:33:28;5.70;99.90
32877;DHT22;19226;51.600;8.034;2023-12-22T05:36:13;5.70;99.90
32877;DHT22;19226;51.600;8.034;2023-12-22T05:38:57;5.70;99.90
32877;DHT22;19226;51.600;8.034;2023-12-22T05:41:42;5.70;99.90
32877;DHT22;19226;51.600;8.034;2023-12-22T05:44:27;5.70;99.90
32877;DHT22;19226;51.600;8.034;2023-12-22T05:47:14;5.70;99.90
32877;DHT22;19226;51.600;8.034;2023-12-22T05:49:59;5.70;99.90
32877;DHT22;19226;51.600;8.034;2023-12-22T05:52:43;5.70;99.90
32877;DHT22;19226;51.600;8.034;2023-12-22T05:55:29;5.80;99.90
32877;DHT22;19226;51.600;8.034;2023-12-22T05:58:14;5.80;99.90
32877;DHT22;19226;51.600;8.034;2023-12-22T06:00:58;5.80;99.90
32877;DHT22;19226;51.600;8.034;2023-12-22T06:03:46;5.80;99.90
32877;DHT22;19226;51.600;8.034;2023-12-22T06:06:30;5.80;99.90
32877;DHT22;19226;51.600;8.034;2023-12-22T06:09:15;5.80;99.90
32877;DHT22;19226;51.600;8.034;2023-12-22T06:12:00;5.90;99.90
32877;DHT22;19226;51.600;8.034;2023-12-22T06:14:44;5.80;99.90
32877;DHT22;19226;51.600;8.034;2023-12-22T06:17:29;5.90;99.90
32877;DHT22;19226;51.600;8.034;2023-12-22T06:20:14;5.90;99.90
32877;DHT22;19226;51.600;8.034;2023-12-22T06:22:58;5.80;99.90
32877;DHT22;19226;51.600;8.034;2023-12-22T06:25:43;5.90;99.90
32877;DHT22;19226;51.600;8.034;2023-12-22T06:28:27;5.90;99.90
32877;DHT22;19226;51.600;8.034;2023-12-22T06:31:19;5.90;99.90
32877;DHT22;19226;51.600;8.034;2023-12-22T06:34:04;6.00;99.90
32877;DHT22;19226;51.600;8.034;2023-12-22T06:36:50;6.00;99.90
32877;DHT22;19226;51.600;8.034;2023-12-22T06:39:34;6.00;99.90
32877;DHT22;19226;51.600;8.034;2023-12-22T06:42:19;6.00;99.90
32877;DHT22;19226;51.600;8.034;2023-12-22T06:45:04;6.00;99.90
32877;DHT22;19226;51.600;8.034;2023-12-22T06:47:49;6.00;99.90
32877;DHT22;19226;51.600;8.034;2023-12-22T06:50:33;6.00;99.90
32877;DHT22;19226;51.600;8.034;2023-12-22T06:53:20;6.10;99.90
32877;DHT22;19226;51.600;8.034;2023-12-22T06:56:18;6.10;99.90
32877;DHT22;19226;51.600;8.034;2023-12-22T06:59:02;6.10;99.90
32877;DHT22;19226;51.600;8.034;2023-12-22T07:01:47;6.10;99.90
32877;DHT22;19226;51.600;8.034;2023-12-22T07:07:50;6.20;99.90
32877;DHT22;19226;51.600;8.034;2023-12-22T07:10:35;6.20;99.90
32877;DHT22;19226;51.600;8.034;2023-12-22T07:13:19;6.20;99.90
32877;DHT22;19226;51.600;8.034;2023-12-22T07:16:05;6.20;99.90
32877;DHT22;19226;51.600;8.034;2023-12-22T07:18:50;6.20;99.90
32877;DHT22;19226;51.600;8.034;2023-12-22T07:21:36;6.20;99.90
32877;DHT22;19226;51.600;8.034;2023-12-22T07:24:20;6.20;99.90
32877;DHT22;19226;51.600;8.034;2023-12-22T07:27:05;6.20;99.90
32877;DHT22;19226;51.600;8.034;2023-12-22T07:29:49;6.20;99.90
32877;DHT22;19226;51.600;8.034;2023-12-22T07:32:34;6.20;99.90
32877;DHT22;19226;51.600;8.034;2023-12-22T07:35:18;6.20;99.90
32877;DHT22;19226;51.600;8.034;2023-12-22T07:38:03;6.20;99.90
32877;DHT22;19226;51.600;8.034;2023-12-22T07:40:47;6.20;99.90
32877;DHT22;19226;51.600;8.034;2023-12-22T07:43:32;6.20;99.90
32877;DHT22;19226;51.600;8.034;2023-12-22T07:46:18;6.30;99.90
32877;DHT22;19226;51.600;8.034;2023-12-22T07:49:02;6.20;99.90
32877;DHT22;19226;51.600;8.034;2023-12-22T07:51:47;6.30;99.90
32877;DHT22;19226;51.600;8.034;2023-12-22T07:54:31;6.30;99.90
32877;DHT22;19226;51.600;8.034;2023-12-22T07:57:17;6.30;99.90
32877;DHT22;19226;51.600;8.034;2023-12-22T08:00:02;6.30;99.90
32877;DHT22;19226;51.600;8.034;2023-12-22T08:02:56;6.40;99.90
32877;DHT22;19226;51.600;8.034;2023-12-22T08:05:41;6.30;99.90
32877;DHT22;19226;51.600;8.034;2023-12-22T08:08:25;6.30;99.90
32877;DHT22;19226;51.600;8.034;2023-12-22T08:11:09;6.20;99.90
32877;DHT22;19226;51.600;8.034;2023-12-22T08:13:54;6.20;99.90
32877;DHT22;19226;51.600;8.034;2023-12-22T08:16:38;6.20;99.90
32877;DHT22;19226;51.600;8.034;2023-12-22T08:19:23;6.20;99.90
32877;DHT22;19226;51.600;8.034;2023-12-22T08:22:12;6.10;99.90
32877;DHT22;19226;51.600;8.034;2023-12-22T08:24:59;6.10;99.90
32877;DHT22;19226;51.600;8.034;2023-12-22T08:27:44;6.10;99.90
32877;DHT22;19226;51.600;8.034;2023-12-22T08:30:28;6.10;99.90
32877;DHT22;19226;51.600;8.034;2023-12-22T08:33:12;6.10;99.90
32877;DHT22;19226;51.600;8.034;2023-12-22T08:35:57;6.10;99.90
32877;DHT22;19226;51.600;8.034;2023-12-22T08:38:42;6.10;99.90
32877;DHT22;19226;51.600;8.034;2023-12-22T08:41:26;6.10;99.90
32877;DHT22;19226;51.600;8.034;2023-12-22T08:44:11;6.10;99.90
32877;DHT22;19226;51.600;8.034;2023-12-22T08:46:58;6.10;99.90
32877;DHT22;19226;51.600;8.034;2023-12-22T08:49:43;6.10;99.90
32877;DHT22;19226;51.600;8.034;2023-12-22T08:52:27;6.10;99.90
32877;DHT22;19226;51.600;8.034;2023-12-22T08:55:12;6.10;99.90
32877;DHT22;19226;51.600;8.034;2023-12-22T08:57:57;6.10;99.90
32877;DHT22;19226;51.600;8.034;2023-12-22T09:00:42;6.20;99.90
32877;DHT22;19226;51.600;8.034;2023-12-22T09:03:26;6.20;99.90
32877;DHT22;19226;51.600;8.034;2023-12-22T09:06:23;6.20;99.90
32877;DHT22;19226;51.600;8.034;2023-12-22T09:09:09;6.20;99.90
32877;DHT22;19226;51.600;8.034;2023-12-22T09:11:53;6.20;99.90
32877;DHT22;19226;51.600;8.034;2023-12-22T09:14:38;6.20;99.90
32877;DHT22;19226;51.600;8.034;2023-12-22T09:17:23;6.20;99.90
32877;DHT22;19226;51.600;8.034;2023-12-22T09:20:08;6.20;99.90
32877;DHT22;19226;51.600;8.034;2023-12-22T09:22:52;6.20;99.90
32877;DHT22;19226;51.600;8.034;2023-12-22T09:25:37;6.10;99.90
32877;DHT22;19226;51.600;8.034;2023-12-22T09:28:23;6.20;99.90
32877;DHT22;19226;51.600;8.034;2023-12-22T09:31:08;6.20;99.90
32877;DHT22;19226;51.600;8.034;2023-12-22T09:33:52;6.20;99.90
32877;DHT22;19226;51.600;8.034;2023-12-22T09:36:37;6.20;99.90
32877;DHT22;19226;51.600;8.034;2023-12-22T09:39:21;6.20;99.90
32877;DHT22;19226;51.600;8.034;2023-12-22T09:42:06;6.20;99.90
32877;DHT22;19226;51.600;8.034;2023-12-22T09:44:53;6.20;99.90
32877;DHT22;19226;51.600;8.034;2023-12-22T09:47:41;6.20;99.90
32877;DHT22;19226;51.600;8.034;2023-12-22T09:50:27;6.10;99.90
32877;DHT22;19226;51.600;8.034;2023-12-22T09:53:13;6.10;99.90
32877;DHT22;19226;51.600;8.034;2023-12-22T09:55:58;6.00;99.90
32877;DHT22;19226;51.600;8.034;2023-12-22T09:58:45;6.00;99.90
32877;DHT22;19226;51.600;8.034;2023-12-22T10:01:31;6.00;99.90
32877;DHT22;19226;51.600;8.034;2023-12-22T10:04:16;6.00;99.90
32877;DHT22;19226;51.600;8.034;2023-12-22T10:07:01;6.00;99.90
32877;DHT22;19226;51.600;8.034;2023-12-22T10:09:49;6.00;99.90
32877;DHT22;19226;51.600;8.034;2023-12-22T10:12:34;6.00;99.90
32877;DHT22;19226;51.600;8.034;2023-12-22T10:15:21;6.00;99.90
32877;DHT22;19226;51.600;8.034;2023-12-22T10:18:08;6.00;99.90
32877;DHT22;19226;51.600;8.034;2023-12-22T10:20:53;6.00;99.90
32877;DHT22;19226;51.600;8.034;2023-12-22T10:23:38;6.00;99.90
32877;DHT22;19226;51.600;8.034;2023-12-22T10:26:22;6.00;99.90
32877;DHT22;19226;51.600;8.034;2023-12-22T10:29:09;6.00;99.90
32877;DHT22;19226;51.600;8.034;2023-12-22T10:31:54;6.00;99.90
32877;DHT22;19226;51.600;8.034;2023-12-22T10:34:39;6.00;99.90
32877;DHT22;19226;51.600;8.034;2023-12-22T10:37:23;6.10;99.90
32877;DHT22;19226;51.600;8.034;2023-12-22T10:40:09;6.00;99.90
32877;DHT22;19226;51.600;8.034;2023-12-22T10:42:54;6.00;99.90
32877;DHT22;19226;51.600;8.034;2023-12-22T10:45:40;6.10;99.90
32877;DHT22;19226;51.600;8.034;2023-12-22T10:48:30;6.10;99.90
32877;DHT22;19226;51.600;8.034;2023-12-22T10:51:15;6.10;99.90
32877;DHT22;19226;51.600;8.034;2023-12-22T10:54:04;6.20;99.90
32877;DHT22;19226;51.600;8.034;2023-12-22T10:56:53;6.20;99.90
32877;DHT22;19226;51.600;8.034;2023-12-22T10:59:45;6.20;99.90
32877;DHT22;19226;51.600;8.034;2023-12-22T11:02:33;6.20;99.90
32877;DHT22;19226;51.600;8.034;2023-12-22T11:05:21;6.30;99.90
32877;DHT22;19226;51.600;8.034;2023-12-22T11:08:07;6.30;99.90
32877;DHT22;19226;51.600;8.034;2023-12-22T11:10:58;6.30;99.90
32877;DHT22;19226;51.600;8.034;2023-12-22T11:13:43;6.40;99.90
32877;DHT22;19226;51.600;8.034;2023-12-22T11:16:29;6.40;99.90
32877;DHT22;19226;51.600;8.034;2023-12-22T11:19:14;6.40;99.90
32877;DHT22;19226;51.600;8.034;2023-12-22T11:21:59;6.50;99.90
32877;DHT22;19226;51.600;8.034;2023-12-22T11:24:48;6.50;99.90
32877;DHT22;19226;51.600;8.034;2023-12-22T11:27:33;6.50;99.90
32877;DHT22;19226;51.600;8.034;2023-12-22T11:30:19;6.60;99.90
32877;DHT22;19226;51.600;8.034;2023-12-22T11:33:05;6.60;99.90
32877;DHT22;19226;51.600;8.034;2023-12-22T11:35:51;6.60;99.90
32877;DHT22;19226;51.600;8.034;2023-12-22T11:38:44;6.60;99.90
32877;DHT22;19226;51.600;8.034;2023-12-22T11:41:33;6.60;99.90
32877;DHT22;19226;51.600;8.034;2023-12-22T11:44:19;6.70;99.90
32877;DHT22;19226;51.600;8.034;2023-12-22T11:47:09;6.70;99.90
32877;DHT22;19226;51.600;8.034;2023-12-22T11:49:54;6.70;99.90
32877;DHT22;19226;51.600;8.034;2023-12-22T11:52:39;6.80;99.90
32877;DHT22;19226;51.600;8.034;2023-12-22T11:55:56;6.80;99.90
32877;DHT22;19226;51.600;8.034;2023-12-22T11:58:59;6.90;99.90
32877;DHT22;19226;51.600;8.034;2023-12-22T12:01:54;6.90;99.90
32877;DHT22;19226;51.600;8.034;2023-12-22T12:04:39;7.00;99.90
32877;DHT22;19226;51.600;8.034;2023-12-22T12:13:22;7.00;99.90
32877;DHT22;19226;51.600;8.034;2023-12-22T12:16:08;7.00;99.90
32877;DHT22;19226;51.600;8.034;2023-12-22T12:18:52;7.00;99.90
32877;DHT22;19226;51.600;8.034;2023-12-22T12:21:39;7.00;99.90
32877;DHT22;19226;51.600;8.034;2023-12-22T12:24:25;7.00;99.90
32877;DHT22;19226;51.600;8.034;2023-12-22T12:27:10;7.00;99.90
32877;DHT22;19226;51.600;8.034;2023-12-22T12:29:56;7.00;99.90
32877;DHT22;19226;51.600;8.034;2023-12-22T12:32:44;7.10;99.90
32877;DHT22;19226;51.600;8.034;2023-12-22T12:35:29;7.10;99.90
32877;DHT22;19226;51.600;8.034;2023-12-22T12:38:17;7.20;99.90
32877;DHT22;19226;51.600;8.034;2023-12-22T12:41:04;7.20;99.90
32877;DHT22;19226;51.600;8.034;2023-12-22T12:43:51;7.20;99.90
32877;DHT22;19226;51.600;8.034;2023-12-22T12:46:38;7.20;99.90
32877;DHT22;19226;51.600;8.034;2023-12-22T12:49:22;7.20;99.90
32877;DHT22;19226;51.600;8.034;2023-12-22T12:52:13;7.10;99.90
32877;DHT22;19226;51.600;8.034;2023-12-22T12:54:58;7.10;99.90
32877;DHT22;19226;51.600;8.034;2023-12-22T12:57:44;7.10;99.90
32877;DHT22;19226;51.600;8.034;2023-12-22T13:00:33;7.10;99.90
32877;DHT22;19226;51.600;8.034;2023-12-22T13:03:20;7.10;99.90
32877;DHT22;19226;51.600;8.034;2023-12-22T13:06:08;7.10;99.90
32877;DHT22;19226;51.600;8.034;2023-12-22T13:08:53;7.10;99.90
32877;DHT22;19226;51.600;8.034;2023-12-22T13:11:37;7.10;99.90
32877;DHT22;19226;51.600;8.034;2023-12-22T13:14:23;7.00;99.90
32877;DHT22;19226;51.600;8.034;2023-12-22T13:17:09;7.00;99.90
32877;DHT22;19226;51.600;8.034;2023-12-22T13:19:54;7.10;99.90
32877;DHT22;19226;51.600;8.034;2023-12-22T13:22:39;7.10;99.90
32877;DHT22;19226;51.600;8.034;2023-12-22T13:25:24;7.10;99.90
32877;DHT22;19226;51.600;8.034;2023-12-22T13:28:09;7.10;99.90
32877;DHT22;19226;51.600;8.034;2023-12-22T13:30:53;7.10;99.90
32877;DHT22;19226;51.600;8.034;2023-12-22T13:33:38;7.10;99.90
32877;DHT22;19226;51.600;8.034;2023-12-22T13:36:22;7.10;99.90
32877;DHT22;19226;51.600;8.034;2023-12-22T13:39:08;7.20;99.90
32877;DHT22;19226;51.600;8.034;2023-12-22T13:41:53;7.10;99.90
32877;DHT22;19226;51.600;8.034;2023-12-22T13:44:45;7.10;99.90
32877;DHT22;19226;51.600;8.034;2023-12-22T13:47:31;7.10;99.90
32877;DHT22;19226;51.600;8.034;2023-12-22T13:50:16;7.20;99.90
32877;DHT22;19226;51.600;8.034;2023-12-22T13:53:08;7.20;99.90
32877;DHT22;19226;51.600;8.034;2023-12-22T13:55:57;7.20;99.90
32877;DHT22;19226;51.600;8.034;2023-12-22T13:58:48;7.20;99.90
32877;DHT22;19226;51.600;8.034;2023-12-22T14:01:33;7.20;99.90
32877;DHT22;19226;51.600;8.034;2023-12-22T14:04:18;7.20;99.90
32877;DHT22;19226;51.600;8.034;2023-12-22T14:07:03;7.20;99.90
32877;DHT22;19226;51.600;8.034;2023-12-22T14:09:47;7.30;99.90
32877;DHT22;19226;51.600;8.034;2023-12-22T14:12:32;7.20;99.90
32877;DHT22;19226;51.600;8.034;2023-12-22T14:15:16;7.30;99.90
32877;DHT22;19226;51.600;8.034;2023-12-22T14:18:01;7.30;99.90
32877;DHT22;19226;51.600;8.034;2023-12-22T14:20:45;7.30;99.90
32877;DHT22;19226;51.600;8.034;2023-12-22T14:23:30;7.30;99.90
32877;DHT22;19226;51.600;8.034;2023-12-22T14:26:14;7.30;99.90
32877;DHT22;19226;51.600;8.034;2023-12-22T14:29:00;7.20;99.90
32877;DHT22;19226;51.600;8.034;2023-12-22T14:31:45;7.30;99.90
32877;DHT22;19226;51.600;8.034;2023-12-22T14:34:29;7.30;99.90
32877;DHT22;19226;51.600;8.034;2023-12-22T14:37:16;7.40;99.90
32877;DHT22;19226;51.600;8.034;2023-12-22T14:40:01;7.40;99.90
32877;DHT22;19226;51.600;8.034;2023-12-22T14:42:46;7.50;99.90
32877;DHT22;19226;51.600;8.034;2023-12-22T14:45:30;7.60;99.90
32877;DHT22;19226;51.600;8.034;2023-12-22T14:48:15;7.60;99.90
32877;DHT22;19226;51.600;8.034;2023-12-22T14:51:00;7.60;99.90
32877;DHT22;19226;51.600;8.034;2023-12-22T14:53:44;7.60;99.90
32877;DHT22;19226;51.600;8.034;2023-12-22T14:56:29;7.60;99.90
32877;DHT22;19226;51.600;8.034;2023-12-22T14:59:14;7.70;99.90
32877;DHT22;19226;51.600;8.034;2023-12-22T15:01:59;7.70;99.90
32877;DHT22;19226;51.600;8.034;2023-12-22T15:04:43;7.70;99.90
32877;DHT22;19226;51.600;8.034;2023-12-22T15:07:28;7.60;99.90
32877;DHT22;19226;51.600;8.034;2023-12-22T15:10:13;7.60;99.90
32877;DHT22;19226;51.600;8.034;2023-12-22T15:12:57;7.60;99.90
32877;DHT22;19226;51.600;8.034;2023-12-22T15:15:42;7.60;99.90
32877;DHT22;19226;51.600;8.034;2023-12-22T15:18:27;7.50;99.90
32877;DHT22;19226;51.600;8.034;2023-12-22T15:21:22;7.50;99.90
32877;DHT22;19226;51.600;8.034;2023-12-22T15:24:07;7.40;99.90
32877;DHT22;19226;51.600;8.034;2023-12-22T15:26:51;7.40;99.90
32877;DHT22;19226;51.600;8.034;2023-12-22T15:29:36;7.50;99.90
32877;DHT22;19226;51.600;8.034;2023-12-22T15:32:20;7.40;99.90
32877;DHT22;19226;51.600;8.034;2023-12-22T15:35:05;7.50;99.90
32877;DHT22;19226;51.600;8.034;2023-12-22T15:37:50;7.50;99.90
32877;DHT22;19226;51.600;8.034;2023-12-22T15:40:35;7.50;99.90
32877;DHT22;19226;51.600;8.034;2023-12-22T15:43:20;7.50;99.90
32877;DHT22;19226;51.600;8.034;2023-12-22T15:46:05;7.50;99.90
32877;DHT22;19226;51.600;8.034;2023-12-22T15:48:50;7.60;99.90
32877;DHT22;19226;51.600;8.034;2023-12-22T15:51:34;7.60;99.90
32877;DHT22;19226;51.600;8.034;2023-12-22T15:54:19;7.70;99.90
32877;DHT22;19226;51.600;8.034;2023-12-22T15:57:05;7.60;99.90
32877;DHT22;19226;51.600;8.034;2023-12-22T15:59:49;7.60;99.90
32877;DHT22;19226;51.600;8.034;2023-12-22T16:02:34;7.50;99.90
32877;DHT22;19226;51.600;8.034;2023-12-22T16:05:23;7.50;99.90
32877;DHT22;19226;51.600;8.034;2023-12-22T16:08:10;7.60;99.90
32877;DHT22;19226;51.600;8.034;2023-12-22T16:10:59;7.70;99.90
32877;DHT22;19226;51.600;8.034;2023-12-22T16:13:44;7.80;99.90
32877;DHT22;19226;51.600;8.034;2023-12-22T16:16:29;7.90;99.90
32877;DHT22;19226;51.600;8.034;2023-12-22T16:19:14;8.00;99.90
32877;DHT22;19226;51.600;8.034;2023-12-22T16:22:00;8.10;99.90
32877;DHT22;19226;51.600;8.034;2023-12-22T16:24:45;8.20;99.90
32877;DHT22;19226;51.600;8.034;2023-12-22T16:27:32;8.20;99.90
32877;DHT22;19226;51.600;8.034;2023-12-22T16:30:16;8.30;99.90
32877;DHT22;19226;51.600;8.034;2023-12-22T16:33:01;8.30;99.90
32877;DHT22;19226;51.600;8.034;2023-12-22T16:35:46;8.30;99.90
32877;DHT22;19226;51.600;8.034;2023-12-22T16:38:31;8.30;99.90
32877;DHT22;19226;51.600;8.034;2023-12-22T16:41:15;8.30;99.90
32877;DHT22;19226;51.600;8.034;2023-12-22T16:44:00;8.30;99.90
32877;DHT22;19226;51.600;8.034;2023-12-22T16:46:44;8.20;99.90
32877;DHT22;19226;51.600;8.034;2023-12-22T16:49:29;8.10;99.90
32877;DHT22;19226;51.600;8.034;2023-12-22T16:52:14;8.00;99.90
32877;DHT22;19226;51.600;8.034;2023-12-22T16:54:59;7.90;99.90
32877;DHT22;19226;51.600;8.034;2023-12-22T16:57:45;7.80;99.90
32877;DHT22;19226;51.600;8.034;2023-12-22T17:00:29;7.80;99.90
32877;DHT22;19226;51.600;8.034;2023-12-22T17:03:14;7.80;99.90
32877;DHT22;19226;51.600;8.034;2023-12-22T17:06:00;7.70;99.90
32877;DHT22;19226;51.600;8.034;2023-12-22T17:08:46;7.60;99.90
32877;DHT22;19226;51.600;8.034;2023-12-22T17:11:31;7.60;99.90
32877;DHT22;19226;51.600;8.034;2023-12-22T17:14:16;7.50;99.90
32877;DHT22;19226;51.600;8.034;2023-12-22T17:17:00;7.50;99.90
32877;DHT22;19226;51.600;8.034;2023-12-22T17:19:44;7.50;99.90
32877;DHT22;19226;51.600;8.034;2023-12-22T17:22:29;7.40;99.90
32877;DHT22;19226;51.600;8.034;2023-12-22T17:25:14;7.40;99.90
32877;DHT22;19226;51.600;8.034;2023-12-22T17:28:01;7.40;99.90
32877;DHT22;19226;51.600;8.034;2023-12-22T17:30:47;7.30;99.90
32877;DHT22;19226;51.600;8.034;2023-12-22T17:33:32;7.40;99.90
32877;DHT22;19226;51.600;8.034;2023-12-22T17:36:16;7.40;99.90
32877;DHT22;19226;51.600;8.034;2023-12-22T17:39:02;7.30;99.90
32877;DHT22;19226;51.600;8.034;2023-12-22T17:41:47;7.30;99.90
32877;DHT22;19226;51.600;8.034;2023-12-22T17:44:31;7.30;99.90
32877;DHT22;19226;51.600;8.034;2023-12-22T17:47:16;7.30;99.90
32877;DHT22;19226;51.600;8.034;2023-12-22T17:50:01;7.30;99.90
32877;DHT22;19226;51.600;8.034;2023-12-22T17:52:46;7.40;99.90
32877;DHT22;19226;51.600;8.034;2023-12-22T17:55:30;7.40;99.90